createdAt,value
2023-01-19T00:00:44.463Z,11.42
2023-01-19T00:03:16.125Z,11.25
2023-01-19T00:05:44.908Z,11.08
2023-01-19T00:08:16.850Z,11.12
2023-01-19T00:10:47.283Z,11.12
2023-01-19T00:13:17.345Z,11.20
2023-01-19T00:15:45.481Z,11.11
2023-01-19T00:18:14.475Z,11.10
2023-01-19T00:20:42.753Z,11.08
2023-01-19T00:23:10.880Z,10.96
2023-01-19T00:25:42.582Z,10.85
2023-01-19T00:28:11.455Z,10.71
2023-01-19T00:30:42.533Z,10.65
2023-01-19T00:33:11.066Z,10.76
2023-01-19T00:35:39.427Z,10.81
2023-01-19T00:38:07.602Z,10.82
2023-01-19T00:40:36.128Z,10.88
2023-01-19T00:43:05.183Z,11.00
2023-01-19T00:45:34.809Z,11.02
2023-01-19T00:48:04.572Z,10.93
2023-01-19T00:50:33.958Z,10.89
2023-01-19T00:53:03.343Z,11.03
2023-01-19T00:55:33.621Z,11.06
2023-01-19T00:58:02.920Z,11.14
2023-01-19T01:00:31.119Z,11.17
2023-01-19T01:02:59.643Z,11.31
2023-01-19T01:05:29.512Z,10.99
2023-01-19T01:07:57.654Z,10.87
2023-01-19T01:10:28.137Z,10.92
2023-01-19T01:12:58.834Z,10.91
2023-01-19T01:15:29.740Z,10.76
2023-01-19T01:17:57.835Z,10.71
2023-01-19T01:20:30.361Z,10.56
2023-01-19T01:23:00.193Z,10.48
2023-01-19T01:25:31.241Z,10.38
2023-01-19T01:27:59.485Z,10.39
2023-01-19T01:30:27.666Z,10.45
2023-01-19T01:32:56.270Z,10.34
2023-01-19T01:35:26.511Z,10.29
2023-01-19T01:37:54.691Z,10.41
2023-01-19T01:40:24.226Z,10.30
2023-01-19T01:42:52.381Z,10.11
2023-01-19T01:45:33.868Z,9.99
2023-01-19T01:48:09.979Z,9.91
2023-01-19T01:51:03.028Z,9.98
2023-01-19T01:53:34.712Z,9.94
2023-01-19T01:56:08.827Z,9.96
2023-01-19T01:58:38.562Z,10.11
2023-01-19T02:01:25.649Z,10.11
2023-01-19T02:03:58.701Z,9.99
2023-01-19T02:06:27.681Z,9.96
2023-01-19T02:09:18.030Z,10.00
2023-01-19T02:12:05.573Z,10.02
2023-01-19T02:14:33.781Z,10.01
2023-01-19T02:17:02.286Z,9.97
2023-01-19T02:19:35.625Z,10.13
2023-01-19T02:22:09.359Z,10.34
2023-01-19T02:24:39.632Z,10.43
2023-01-19T02:27:09.182Z,10.50
2023-01-19T02:29:37.416Z,10.51
2023-01-19T02:32:06.276Z,10.47
2023-01-19T02:34:34.934Z,10.38
2023-01-19T02:37:08.797Z,10.28
2023-01-19T02:39:45.305Z,10.34
2023-01-19T02:42:17.044Z,10.41
2023-01-19T02:44:48.308Z,10.44
2023-01-19T02:47:17.641Z,10.53
2023-01-19T02:49:45.745Z,10.51
2023-01-19T02:52:19.688Z,10.57
2023-01-19T02:55:00.349Z,10.82
2023-01-19T02:57:43.750Z,10.85
2023-01-19T03:00:26.497Z,10.83
2023-01-19T03:03:09.239Z,10.87
2023-01-19T03:05:53.175Z,10.96
2023-01-19T03:08:33.062Z,10.79
2023-01-19T03:11:05.744Z,10.82
2023-01-19T03:13:43.800Z,10.55
2023-01-19T03:16:21.847Z,10.51
2023-01-19T03:18:55.000Z,10.49
2023-01-19T03:21:27.928Z,10.41
2023-01-19T03:24:00.474Z,10.25
2023-01-19T03:26:33.976Z,10.19
2023-01-19T03:29:04.938Z,10.39
2023-01-19T03:31:34.556Z,10.54
2023-01-19T03:34:07.918Z,10.51
2023-01-19T03:36:39.995Z,10.49
2023-01-19T03:39:11.329Z,10.46
2023-01-19T03:41:44.336Z,10.48
2023-01-19T03:44:13.567Z,10.32
2023-01-19T03:46:42.252Z,10.31
2023-01-19T03:49:11.197Z,10.17
2023-01-19T03:51:40.389Z,10.09
2023-01-19T03:54:09.376Z,10.03
2023-01-19T03:56:37.702Z,9.92
2023-01-19T03:59:07.556Z,9.78
2023-01-19T04:01:35.917Z,9.73
2023-01-19T04:04:04.089Z,9.73
2023-01-19T04:06:32.221Z,9.69
2023-01-19T04:09:00.408Z,9.61
2023-01-19T04:11:28.523Z,9.63
2023-01-19T04:13:56.602Z,9.54
2023-01-19T04:16:26.213Z,9.47
2023-01-19T04:18:54.455Z,9.59
2023-01-19T04:21:22.673Z,9.56
2023-01-19T04:23:51.004Z,9.57
2023-01-19T04:26:19.185Z,9.47
2023-01-19T04:28:47.312Z,9.43
2023-01-19T04:31:15.590Z,9.48
2023-01-19T04:33:45.117Z,9.48
2023-01-19T04:36:13.265Z,9.42
2023-01-19T04:38:41.565Z,9.41
2023-01-19T04:41:10.096Z,9.68
2023-01-19T04:43:38.475Z,9.64
2023-01-19T04:46:06.811Z,9.83
2023-01-19T04:48:35.165Z,9.75
2023-01-19T04:51:04.869Z,9.77
2023-01-19T04:53:33.072Z,9.63
2023-01-19T04:56:01.382Z,9.61
2023-01-19T04:58:29.522Z,9.52
2023-01-19T05:00:57.757Z,9.43
2023-01-19T05:03:26.698Z,9.38
2023-01-19T05:05:54.912Z,9.34
2023-01-19T05:08:24.572Z,9.24
2023-01-19T05:10:52.813Z,9.13
2023-01-19T05:13:20.987Z,9.12
2023-01-19T05:15:49.461Z,9.41
2023-01-19T05:18:18.051Z,9.31
2023-01-19T05:20:46.140Z,9.21
2023-01-19T05:23:14.171Z,9.35
2023-01-19T05:25:44.686Z,9.43
2023-01-19T05:28:13.046Z,9.45
2023-01-19T05:30:41.460Z,9.37
2023-01-19T05:33:09.732Z,9.35
2023-01-19T05:35:37.745Z,9.35
2023-01-19T05:38:05.871Z,9.37
2023-01-19T05:40:33.931Z,9.43
2023-01-19T05:43:05.354Z,9.44
2023-01-19T05:45:34.280Z,9.55
2023-01-19T05:48:02.555Z,9.71
2023-01-19T05:50:30.723Z,10.08
2023-01-19T05:53:00.225Z,10.23
2023-01-19T05:55:29.524Z,10.22
2023-01-19T05:57:57.701Z,10.29
2023-01-19T06:00:27.932Z,10.34
2023-01-19T06:02:56.176Z,10.13
2023-01-19T06:05:24.372Z,10.09
2023-01-19T06:07:52.689Z,10.15
2023-01-19T06:10:20.968Z,9.98
2023-01-19T06:12:49.984Z,9.80
2023-01-19T06:15:18.513Z,9.85
2023-01-19T06:17:48.118Z,9.80
2023-01-19T06:20:16.660Z,9.72
2023-01-19T06:22:44.798Z,9.72
2023-01-19T06:25:13.709Z,9.70
2023-01-19T06:27:45.330Z,9.68
2023-01-19T06:30:15.019Z,9.66
2023-01-19T06:32:43.220Z,9.65
2023-01-19T06:35:13.128Z,9.69
2023-01-19T06:37:41.785Z,9.76
2023-01-19T06:40:13.599Z,9.77
2023-01-19T06:42:42.724Z,9.77
2023-01-19T06:45:14.776Z,9.85
2023-01-19T06:47:42.902Z,9.88
2023-01-19T06:50:12.988Z,10.00
2023-01-19T06:52:42.730Z,9.89
2023-01-19T06:55:12.233Z,9.86
2023-01-19T06:57:41.081Z,9.86
2023-01-19T07:00:12.332Z,9.93
2023-01-19T07:02:43.771Z,9.88
2023-01-19T07:05:15.269Z,9.87
2023-01-19T07:07:45.507Z,9.86
2023-01-19T07:10:15.842Z,10.00
2023-01-19T07:12:46.577Z,9.94
2023-01-19T07:15:15.343Z,9.92
2023-01-19T07:17:43.561Z,9.97
2023-01-19T07:20:14.625Z,10.35
2023-01-19T07:22:45.896Z,10.34
2023-01-19T07:25:14.769Z,10.24
2023-01-19T07:27:43.271Z,10.30
2023-01-19T07:30:12.419Z,10.36
2023-01-19T07:32:40.771Z,10.43
2023-01-19T07:35:14.602Z,10.55
2023-01-19T07:37:42.799Z,10.61
2023-01-19T07:40:12.331Z,10.70
2023-01-19T07:42:41.005Z,10.78
2023-01-19T07:45:10.382Z,10.91
2023-01-19T07:47:38.703Z,10.99
2023-01-19T07:50:07.790Z,11.05
2023-01-19T07:52:37.507Z,11.20
2023-01-19T07:55:06.428Z,11.39
2023-01-19T07:57:35.613Z,11.50
2023-01-19T08:00:05.072Z,11.55
2023-01-19T08:02:34.143Z,11.70
2023-01-19T08:05:02.300Z,11.85
2023-01-19T08:07:30.552Z,11.98
2023-01-19T08:10:00.195Z,11.99
2023-01-19T08:12:28.328Z,12.02
2023-01-19T08:14:56.331Z,12.10
2023-01-19T08:17:24.433Z,12.19
2023-01-19T08:19:52.502Z,12.34
2023-01-19T08:22:20.574Z,12.49
2023-01-19T08:24:50.378Z,12.66
2023-01-19T08:27:20.032Z,12.99
2023-01-19T08:29:48.666Z,13.10
2023-01-19T08:32:17.148Z,13.17
2023-01-19T08:34:45.296Z,13.23
2023-01-19T08:37:13.394Z,13.25
2023-01-19T08:39:41.711Z,13.29
2023-01-19T08:42:09.839Z,13.46
2023-01-19T08:44:43.888Z,13.66
2023-01-19T08:47:17.917Z,13.94
2023-01-19T08:49:46.299Z,13.91
2023-01-19T08:52:14.575Z,13.86
2023-01-19T08:54:42.761Z,13.84
2023-01-19T08:57:10.850Z,13.98
2023-01-19T08:59:40.583Z,14.04
2023-01-19T09:02:11.260Z,14.12
2023-01-19T09:04:39.456Z,14.18
2023-01-19T09:07:07.591Z,14.20
2023-01-19T09:09:38.016Z,14.32
2023-01-19T09:12:06.480Z,14.36
2023-01-19T09:14:34.631Z,14.37
2023-01-19T09:17:04.427Z,14.46
2023-01-19T09:19:33.747Z,14.61
2023-01-19T09:22:03.177Z,14.70
2023-01-19T09:24:31.280Z,14.71
2023-01-19T09:26:59.392Z,14.76
2023-01-19T09:29:27.586Z,15.08
2023-01-19T09:31:55.771Z,15.28
2023-01-19T09:34:26.264Z,15.45
2023-01-19T09:36:54.719Z,15.63
2023-01-19T09:39:22.937Z,15.64
2023-01-19T09:42:00.570Z,15.67
2023-01-19T09:44:33.472Z,15.83
2023-01-19T09:47:05.021Z,15.85
2023-01-19T09:49:37.969Z,15.91
2023-01-19T09:52:06.913Z,16.19
2023-01-19T09:54:44.221Z,16.23
2023-01-19T09:57:13.741Z,16.38
2023-01-19T09:59:43.957Z,16.54
2023-01-19T10:02:29.226Z,16.78
2023-01-19T10:05:02.571Z,16.93
2023-01-19T10:07:56.216Z,16.94
2023-01-19T10:10:27.305Z,17.13
2023-01-19T10:13:20.405Z,17.14
2023-01-19T10:15:58.156Z,17.25
2023-01-19T10:18:33.287Z,17.37
2023-01-19T10:21:07.231Z,17.38
2023-01-19T10:23:44.661Z,17.73
2023-01-19T10:26:18.413Z,17.80
2023-01-19T10:28:50.191Z,17.88
2023-01-19T10:31:23.736Z,17.99
2023-01-19T10:33:52.705Z,18.16
2023-01-19T10:36:26.712Z,18.12
2023-01-19T10:38:55.190Z,18.15
2023-01-19T10:41:27.543Z,18.23
2023-01-19T10:44:02.248Z,18.35
2023-01-19T10:46:38.584Z,18.43
2023-01-19T10:49:07.610Z,18.59
2023-01-19T10:51:48.441Z,18.56
2023-01-19T10:54:17.027Z,18.61
2023-01-19T10:56:51.616Z,18.67
2023-01-19T10:59:33.677Z,18.68
2023-01-19T11:02:17.087Z,18.68
2023-01-19T11:04:48.944Z,18.77
2023-01-19T11:07:21.540Z,18.87
2023-01-19T11:09:50.685Z,19.00
2023-01-19T11:12:24.087Z,19.02
2023-01-19T11:14:53.912Z,19.08
2023-01-19T11:17:25.227Z,19.22
2023-01-19T11:20:02.472Z,19.34
2023-01-19T11:22:34.102Z,19.37
2023-01-19T11:25:04.607Z,19.25
2023-01-19T11:27:35.821Z,19.30
2023-01-19T11:30:18.212Z,19.35
2023-01-19T11:32:49.307Z,19.58
2023-01-19T11:35:38.711Z,19.82
2023-01-19T11:38:17.010Z,19.90
2023-01-19T11:40:53.006Z,19.97
2023-01-19T11:43:23.588Z,20.00
2023-01-19T11:45:52.285Z,20.01
2023-01-19T11:48:28.686Z,20.05
2023-01-19T11:51:01.753Z,19.96
2023-01-19T11:53:35.160Z,19.92
2023-01-19T11:56:07.987Z,19.92
2023-01-19T11:58:41.965Z,19.98
2023-01-19T12:01:21.270Z,20.01
2023-01-19T12:03:55.854Z,20.00
2023-01-19T12:06:27.980Z,19.99
2023-01-19T12:09:00.817Z,20.04
2023-01-19T12:11:38.452Z,20.04
2023-01-19T12:14:16.298Z,20.06
2023-01-19T12:16:45.117Z,20.01
2023-01-19T12:19:18.175Z,19.94
2023-01-19T12:21:48.235Z,20.08
2023-01-19T12:24:24.521Z,20.05
2023-01-19T12:26:56.919Z,20.10
2023-01-19T12:29:29.000Z,19.99
2023-01-19T12:32:19.610Z,19.87
2023-01-19T12:34:48.493Z,19.95
2023-01-19T12:37:41.146Z,19.89
2023-01-19T12:40:27.592Z,19.92
2023-01-19T12:43:01.853Z,19.96
2023-01-19T12:45:34.749Z,19.86
2023-01-19T12:48:03.873Z,19.79
2023-01-19T12:50:38.401Z,19.83
2023-01-19T12:53:17.417Z,19.98
2023-01-19T12:55:47.730Z,19.89
2023-01-19T12:58:19.210Z,19.76
2023-01-19T13:00:49.641Z,19.75
2023-01-19T13:03:47.153Z,19.74
2023-01-19T13:06:15.315Z,19.69
2023-01-19T13:09:00.814Z,19.75
2023-01-19T13:11:34.315Z,19.77
2023-01-19T13:14:35.463Z,19.72
2023-01-19T13:17:33.834Z,19.61
2023-01-19T13:20:27.374Z,19.69
2023-01-19T13:23:18.148Z,19.59
2023-01-19T13:25:54.684Z,19.57
2023-01-19T13:28:40.638Z,19.51
2023-01-19T13:31:10.218Z,19.46
2023-01-19T13:33:49.508Z,19.44
2023-01-19T13:36:28.834Z,19.42
2023-01-19T13:38:59.233Z,19.37
2023-01-19T13:41:30.424Z,19.28
2023-01-19T13:44:04.569Z,19.15
2023-01-19T13:46:34.323Z,19.09
2023-01-19T13:49:06.562Z,19.03
2023-01-19T13:51:34.710Z,19.02
2023-01-19T13:54:02.998Z,19.00
2023-01-19T13:56:31.962Z,19.13
2023-01-19T13:59:11.764Z,19.06
2023-01-19T14:01:42.129Z,18.94
2023-01-19T14:04:27.244Z,18.91
2023-01-19T14:06:58.017Z,18.90
2023-01-19T14:09:26.198Z,18.97
2023-01-19T14:12:11.799Z,18.92
2023-01-19T14:14:42.386Z,18.86
2023-01-19T14:17:25.128Z,18.85
2023-01-19T14:19:54.765Z,18.84
2023-01-19T14:22:37.917Z,18.71
2023-01-19T14:25:28.407Z,18.57
2023-01-19T14:28:31.119Z,18.41
2023-01-19T14:31:02.290Z,18.42
2023-01-19T14:33:41.239Z,18.34
2023-01-19T14:36:26.365Z,18.33
2023-01-19T14:38:57.712Z,18.41
2023-01-19T14:41:28.426Z,18.20
2023-01-19T14:43:57.440Z,18.05
2023-01-19T14:46:27.684Z,17.90
2023-01-19T14:49:03.264Z,17.77
2023-01-19T14:51:33.121Z,17.65
2023-01-19T14:54:04.434Z,17.53
2023-01-19T14:56:35.866Z,17.47
2023-01-19T14:59:11.097Z,17.39
2023-01-19T15:01:41.092Z,17.32
2023-01-19T15:04:09.342Z,17.14
2023-01-19T15:06:43.327Z,17.20
2023-01-19T15:09:13.615Z,16.99
2023-01-19T15:11:42.671Z,16.84
2023-01-19T15:14:14.508Z,16.77
2023-01-19T15:16:44.913Z,16.63
2023-01-19T15:19:14.141Z,16.62
2023-01-19T15:21:43.127Z,16.54
2023-01-19T15:24:12.086Z,16.54
2023-01-19T15:26:42.131Z,16.41
2023-01-19T15:29:23.288Z,16.43
2023-01-19T15:31:53.963Z,16.50
2023-01-19T15:34:22.200Z,16.39
2023-01-19T15:36:50.305Z,16.41
2023-01-19T15:39:18.436Z,16.30
2023-01-19T15:41:46.727Z,16.39
2023-01-19T15:44:17.365Z,16.40
2023-01-19T15:46:45.468Z,16.34
2023-01-19T15:49:15.058Z,16.23
2023-01-19T15:51:43.146Z,16.16
2023-01-19T15:54:13.803Z,16.12
2023-01-19T15:56:44.414Z,15.99
2023-01-19T16:01:58.362Z,16.06
2023-01-19T16:04:28.150Z,16.04
2023-01-19T16:06:56.335Z,16.13
2023-01-19T16:09:24.697Z,16.20
2023-01-19T16:11:56.208Z,16.16
2023-01-19T16:14:39.710Z,16.11
2023-01-19T16:17:07.817Z,16.15
2023-01-19T16:19:37.334Z,16.22
2023-01-19T16:22:06.136Z,16.05
2023-01-19T16:24:36.451Z,15.84
2023-01-19T16:27:04.547Z,15.78
2023-01-19T16:29:32.951Z,15.91
2023-01-19T16:32:01.044Z,15.92
2023-01-19T16:34:29.147Z,15.99
2023-01-19T16:36:58.746Z,15.86
2023-01-19T16:39:26.878Z,15.82
2023-01-19T16:41:55.142Z,15.99
2023-01-19T16:44:23.365Z,16.16
2023-01-19T16:46:51.650Z,16.29
2023-01-19T16:49:22.348Z,16.23
2023-01-19T16:51:51.684Z,16.16
2023-01-19T16:54:23.169Z,16.00
2023-01-19T16:56:51.422Z,15.82
2023-01-19T16:59:21.207Z,15.77
2023-01-19T17:01:52.138Z,15.73
2023-01-19T17:04:23.250Z,15.73
2023-01-19T17:06:51.433Z,15.60
2023-01-19T17:09:21.134Z,15.44
2023-01-19T17:11:49.553Z,15.38
2023-01-19T17:14:21.995Z,15.37
2023-01-19T17:16:50.857Z,15.42
2023-01-19T17:19:22.129Z,15.39
2023-01-19T17:21:51.183Z,15.37
2023-01-19T17:24:21.119Z,15.34
2023-01-19T17:26:50.869Z,15.22
2023-01-19T17:29:19.160Z,15.22
2023-01-19T17:31:47.349Z,15.30
2023-01-19T17:34:15.568Z,15.30
2023-01-19T17:36:43.759Z,15.33
2023-01-19T17:39:15.863Z,15.43
2023-01-19T17:41:45.857Z,15.47
2023-01-19T17:44:14.025Z,15.43
2023-01-19T17:46:42.629Z,15.44
2023-01-19T17:49:12.065Z,15.38
2023-01-19T17:51:40.759Z,15.29
2023-01-19T17:54:10.900Z,15.27
2023-01-19T17:56:41.812Z,15.29
2023-01-19T17:59:11.335Z,15.29
2023-01-19T18:01:40.868Z,15.28
2023-01-19T18:04:09.861Z,15.47
2023-01-19T18:06:38.347Z,15.45
2023-01-19T18:09:07.580Z,15.40
2023-01-19T18:11:36.319Z,15.35
2023-01-19T18:14:06.107Z,15.31
2023-01-19T18:16:36.147Z,15.14
2023-01-19T18:19:04.424Z,15.09
2023-01-19T18:21:32.558Z,15.09
2023-01-19T18:24:03.298Z,15.02
2023-01-19T18:26:33.211Z,15.00
2023-01-19T18:29:01.406Z,14.79
2023-01-19T18:31:30.177Z,14.63
2023-01-19T18:33:59.852Z,14.55
2023-01-19T18:36:28.309Z,14.49
2023-01-19T18:38:56.509Z,14.36
2023-01-19T18:41:24.954Z,14.25
2023-01-19T18:43:54.597Z,14.16
2023-01-19T18:46:23.235Z,14.19
2023-01-19T18:48:52.059Z,14.06
2023-01-19T18:51:21.739Z,14.07
2023-01-19T18:53:50.040Z,14.11
2023-01-19T18:56:18.298Z,14.09
2023-01-19T18:58:46.909Z,14.08
2023-01-19T19:01:23.764Z,14.15
2023-01-19T19:03:52.306Z,14.17
2023-01-19T19:06:22.666Z,14.13
2023-01-19T19:08:52.109Z,14.09
2023-01-19T19:11:20.999Z,13.94
2023-01-19T19:13:53.270Z,13.97
2023-01-19T19:16:21.547Z,14.05
2023-01-19T19:18:50.558Z,14.14
2023-01-19T19:21:20.158Z,14.29
2023-01-19T19:23:53.081Z,14.47
2023-01-19T19:26:21.703Z,14.54
2023-01-19T19:28:49.926Z,14.53
2023-01-19T19:31:20.887Z,14.68
2023-01-19T19:33:51.195Z,14.58
2023-01-19T19:36:20.553Z,14.66
2023-01-19T19:38:49.645Z,14.93
2023-01-19T19:41:20.974Z,14.93
2023-01-19T19:43:49.522Z,15.09
2023-01-19T19:46:20.305Z,15.09
2023-01-19T19:48:49.218Z,14.99
2023-01-19T19:51:19.767Z,15.03
2023-01-19T19:53:51.376Z,15.11
2023-01-19T19:56:23.521Z,15.17
2023-01-19T19:58:54.964Z,15.07
2023-01-19T20:01:27.568Z,15.07
2023-01-19T20:03:57.047Z,14.97
2023-01-19T20:06:26.783Z,14.91
2023-01-19T20:08:57.166Z,15.03
2023-01-19T20:11:29.321Z,15.20
2023-01-19T20:13:57.597Z,15.34
2023-01-19T20:16:26.082Z,15.56
2023-01-19T20:18:55.328Z,15.61
2023-01-19T20:21:26.219Z,15.65
2023-01-19T20:23:57.580Z,15.62
2023-01-19T20:26:29.722Z,15.81
2023-01-19T20:29:00.371Z,15.70
2023-01-19T20:31:31.431Z,15.62
2023-01-19T20:34:02.641Z,15.55
2023-01-19T20:36:30.808Z,15.43
2023-01-19T20:39:00.131Z,15.50
2023-01-19T20:41:29.745Z,15.45
2023-01-19T20:43:58.117Z,15.35
2023-01-19T20:46:26.827Z,15.33
2023-01-19T20:48:55.153Z,15.51
2023-01-19T20:51:24.317Z,15.51
2023-01-19T20:53:52.571Z,15.32
2023-01-19T20:56:22.454Z,15.26
2023-01-19T20:58:53.171Z,15.47
2023-01-19T21:01:23.851Z,15.64
2023-01-19T21:03:54.578Z,15.67
2023-01-19T21:06:23.854Z,15.70
2023-01-19T21:08:53.354Z,15.66
2023-01-19T21:11:24.100Z,15.65
2023-01-19T21:13:56.227Z,15.80
2023-01-19T21:16:25.775Z,15.68
2023-01-19T21:18:55.077Z,15.65
2023-01-19T21:21:30.504Z,15.62
2023-01-19T21:24:01.113Z,15.51
2023-01-19T21:26:30.478Z,15.80
2023-01-19T21:29:01.375Z,15.88
2023-01-19T21:31:30.579Z,15.86
2023-01-19T21:33:59.254Z,15.77
2023-01-19T21:36:28.121Z,15.76
2023-01-19T21:39:01.009Z,15.74
2023-01-19T21:41:30.061Z,15.76
2023-01-19T21:44:01.552Z,15.78
2023-01-19T21:46:30.641Z,15.68
2023-01-19T21:48:59.820Z,15.55
2023-01-19T21:51:29.046Z,15.52
2023-01-19T21:53:59.725Z,15.50
2023-01-19T21:56:28.640Z,15.81
2023-01-19T21:58:57.363Z,15.82
2023-01-19T22:01:27.949Z,15.69
2023-01-19T22:03:58.754Z,15.31
2023-01-19T22:06:28.462Z,15.12
2023-01-19T22:08:58.017Z,14.98
2023-01-19T22:11:26.200Z,14.83
2023-01-19T22:13:54.986Z,14.72
2023-01-19T22:16:24.312Z,14.50
2023-01-19T22:18:57.661Z,14.45
2023-01-19T22:21:27.970Z,14.27
2023-01-19T22:23:59.117Z,14.23
2023-01-19T22:26:28.017Z,14.07
2023-01-19T22:28:57.320Z,13.95
2023-01-19T22:31:26.904Z,14.05
2023-01-19T22:33:56.688Z,13.98
2023-01-19T22:36:26.235Z,13.91
2023-01-19T22:38:56.663Z,13.84
2023-01-19T22:41:26.395Z,13.79
2023-01-19T22:43:55.914Z,13.82
2023-01-19T22:46:26.698Z,13.84
2023-01-19T22:48:56.452Z,13.91
2023-01-19T22:51:25.824Z,13.95
2023-01-19T22:53:54.067Z,13.99
2023-01-19T22:56:24.366Z,14.15
2023-01-19T22:58:53.411Z,14.08
2023-01-19T23:01:23.516Z,14.12
2023-01-19T23:03:52.399Z,14.16
2023-01-19T23:06:23.667Z,14.21
2023-01-19T23:08:52.598Z,14.26
2023-01-19T23:11:23.792Z,14.24
2023-01-19T23:13:52.241Z,14.41
2023-01-19T23:16:21.377Z,14.39
2023-01-19T23:18:53.677Z,14.43
2023-01-19T23:21:24.867Z,14.46
2023-01-19T23:23:55.412Z,14.59
2023-01-19T23:26:24.743Z,14.61
2023-01-19T23:28:56.262Z,14.53
2023-01-19T23:31:26.493Z,14.57
2023-01-19T23:33:56.495Z,14.62
2023-01-19T23:36:27.819Z,14.90
2023-01-19T23:38:57.459Z,14.98
2023-01-19T23:41:26.343Z,15.04
2023-01-19T23:43:54.672Z,14.99
2023-01-19T23:46:23.037Z,15.13
2023-01-19T23:48:51.514Z,15.17
2023-01-19T23:51:21.392Z,15.22
2023-01-19T23:53:51.202Z,15.28
2023-01-19T23:56:22.445Z,15.35
2023-01-19T23:58:55.115Z,15.40
